Flight Track Log - Related Links

Times and Time Zones

All times are in EDT time to prevent confusion due to time zone crossing. See the UAL1105 flight status page for this flight to view local times or setup timezone preferences in your user account.

Time Position Orientation Groundspeed Altitude Reporting Facility
EDT Latitude Longitude Course Direction KTS MPH feet Rate Location/Type
Sat 10:19:15 AM 39.8772 -104.5906 17° North 200 230 6,700  Level Denver Center
Sat 10:19:32 AM 39.8833 -104.5667 72° East 199 229 7,100 1,714 Climbing Denver TRACON
Sat 10:20:32 AM 39.9000 -104.4833 75° East 266 306 8,900 2,105 Climbing Denver TRACON
Sat 10:21:00 AM 40.2059 -104.5345 19° North  Level FlightAware Approximate
Sat 10:21:26 AM 39.9833 -104.4833 360° North 284 327 11,100  Level Denver TRACON
Sat 10:22:00 AM 40.3247 -104.4966 18° North  Level FlightAware Approximate
Sat 10:22:26 AM 40.0667 -104.4667 North 299 344 13,800  Level Denver TRACON
Sat 10:23:00 AM 40.4423 -104.4464 17° North  Level FlightAware Approximate
Sat 10:23:33 AM 40.1411 -104.4639 North 306 352 15,500  Level Denver Center
Sat 10:24:00 AM 40.5606 -104.3991 17° North  Level FlightAware Approximate
Sat 10:24:35 AM 40.2656 -104.4503 North 366 421 18,100  Level Denver Center
Sat 10:25:36 AM 40.3664 -104.4375 North 368 423 19,900 1,756 Climbing Denver Center
Sat 10:26:38 AM 40.4703 -104.4222 North 378 435 21,700 1,756 Climbing Denver Center
Sat 10:27:39 AM 40.5622 -104.4136 North 387 445 23,500 1,951 Climbing Denver Center
Sat 10:28:41 AM 40.6961 -104.4008 North 388 447 25,700 1,694 Climbing Denver Center
Sat 10:29:43 AM 40.8053 -104.3728 11° North 383 441 27,000 1,122 Climbing Denver Center
Sat 10:30:44 AM 40.9103 -104.3292 17° North 396 456 28,000 1,220 Climbing Denver Center
Sat 10:31:46 AM 41.0381 -104.2678 20° North 424 488 29,500 1,415 Climbing Denver Center
Sat 10:32:47 AM 41.1453 -104.2231 17° North 425 489 30,900 1,268 Climbing Denver Center
Sat 10:33:49 AM 41.2469 -104.1625 24° Northeast 424 488 32,100 1,161 Climbing Denver Center
Sat 10:34:51 AM 41.3331 -104.0228 51° Northeast 433 498 33,300 1,210 Climbing Denver Center
Sat 10:35:53 AM 41.4050 -103.9028 51° Northeast 433 498 34,600 829 Climbing Denver Center
Sat 10:36:54 AM 41.4861 -103.7672 51° Northeast 422 486 35,000 439 Climbing Denver Center
Sat 10:37:56 AM 41.5561 -103.6456 52° Northeast 428 493 35,500 726 Climbing Denver Center
Sat 10:38:58 AM 41.6361 -103.5097 52° Northeast 421 484 36,500 726 Climbing Denver Center
Sat 10:40:00 AM 41.7039 -103.3942 52° Northeast 415 478 37,000 242 Climbing Denver Center
Sat 10:41:02 AM 41.7836 -103.2592 52° Northeast 415 478 37,000  Level Denver Center
Sat 10:42:03 AM 41.8522 -103.1394 52° Northeast 420 483 37,000  Level Denver Center
Sat 10:43:05 AM 41.9328 -103.0011 52° Northeast 422 486 37,000  Level Denver Center
Sat 10:44:07 AM 42.0022 -102.8800 52° Northeast 426 490 37,000  Level Denver Center
Sat 10:45:09 AM 42.0708 -102.7611 52° Northeast 423 487 37,000  Level Denver Center
Sat 10:46:11 AM 42.1486 -102.6244 52° Northeast 416 479 37,000  Level Denver Center
Sat 10:47:13 AM 42.2172 -102.5050 52° Northeast 418 481 37,000  Level Denver Center
Sat 10:48:14 AM 42.2933 -102.3694 53° Northeast 410 472 37,000  Level Denver Center
Sat 10:49:16 AM 42.3597 -102.2517 53° Northeast 412 474 37,000  Level Denver Center
Sat 10:50:18 AM 42.4358 -102.1164 53° Northeast 407 468 37,000  Level Denver Center
Sat 10:51:20 AM 42.5017 -101.9997 53° Northeast 407 468 37,000  Level Denver Center
Sat 10:52:21 AM 42.5558 -101.9003 53° Northeast 408 470 37,000  Level Denver Center
Sat 10:53:24 AM 42.6453 -101.7383 53° Northeast 408 470 37,000  Level Denver Center
Sat 10:54:25 AM 42.7100 -101.6203 53° Northeast 407 468 37,000  Level Denver Center
Sat 10:55:27 AM 42.7872 -101.4803 53° Northeast 413 475 37,000  Level Denver Center
Sat 10:56:29 AM 42.8550 -101.3550 54° Northeast 413 475 37,000  Level Denver Center
Sat 10:57:31 AM 42.9242 -101.2289 53° Northeast 416 479 37,000  Level Denver Center
Sat 10:58:33 AM 42.9919 -101.1014 54° Northeast 414 476 37,000  Level Denver Center
Sat 10:59:35 AM 43.0611 -100.9742 53° Northeast 416 479 37,000  Level Denver Center
Sat 11:00:37 AM 43.1322 -100.8453 53° Northeast 422 486 37,000  Level Denver Center
Sat 11:01:39 AM 43.2161 -100.6856 54° Northeast 430 495 37,000  Level Denver Center
Sat 11:02:38 AM 43.2856 -100.5556 54° Northeast 428 493 37,000  Level Minneapolis Center
Sat 11:03:39 AM 43.3567 -100.4239 53° Northeast 430 495 37,000  Level Minneapolis Center
Sat 11:04:41 AM 43.4253 -100.2928 54° Northeast 427 491 37,000  Level Minneapolis Center
Sat 11:05:42 AM 43.4950 -100.1583 54° Northeast 428 493 37,000  Level Minneapolis Center
Sat 11:06:43 AM 43.5650 -100.0267 54° Northeast 430 495 37,000  Level Minneapolis Center
Sat 11:07:45 AM 43.6333 -99.8942 54° Northeast 427 491 37,000  Level Minneapolis Center
Sat 11:08:46 AM 43.7033 -99.7594 54° Northeast 430 495 37,000  Level Minneapolis Center
Sat 11:09:47 AM 43.7725 -99.6242 55° Northeast 431 496 37,000  Level Minneapolis Center
Sat 11:10:48 AM 43.8417 -99.4883 55° Northeast 432 497 37,000  Level Minneapolis Center
Sat 11:11:50 AM 43.9264 -99.3247 54° Northeast 435 501 37,000  Level Minneapolis Center
Sat 11:12:51 AM 43.9958 -99.1858 55° Northeast 437 503 37,000  Level Minneapolis Center
Sat 11:13:52 AM 44.0653 -99.0481 55° Northeast 437 503 37,000  Level Minneapolis Center
Sat 11:14:54 AM 44.1350 -98.9094 55° Northeast 438 504 37,000  Level Minneapolis Center
Sat 11:15:55 AM 44.2033 -98.7728 55° Northeast 436 502 37,000  Level Minneapolis Center
Sat 11:16:56 AM 44.2742 -98.6347 54° Northeast 438 504 37,000  Level Minneapolis Center
Sat 11:17:57 AM 44.3403 -98.4981 56° Northeast 431 496 37,000  Level Minneapolis Center
Sat 11:18:59 AM 44.4086 -98.3589 55° Northeast 433 498 37,000  Level Minneapolis Center
Sat 11:20:00 AM 44.4789 -98.2167 55° Northeast 436 502 37,000  Level Minneapolis Center
Sat 11:21:01 AM 44.5500 -98.0758 55° Northeast 440 506 37,000  Level Minneapolis Center
Sat 11:22:03 AM 44.6017 -97.8783 70° East 470 541 37,000  Level Minneapolis Center
Sat 11:23:04 AM 44.6117 -97.6933 86° East 478 550 37,000  Level Minneapolis Center
Sat 11:24:05 AM 44.6192 -97.5086 87° East 475 547 37,000  Level Minneapolis Center
Sat 11:25:07 AM 44.6286 -97.3242 86° East 475 547 37,000  Level Minneapolis Center
Sat 11:26:08 AM 44.6375 -97.1372 86° East 479 551 37,000  Level Minneapolis Center
Sat 11:27:09 AM 44.6467 -96.9503 86° East 479 551 37,000  Level Minneapolis Center
Sat 11:28:11 AM 44.6553 -96.7619 86° East 482 555 37,000  Level Minneapolis Center
Sat 11:29:12 AM 44.6631 -96.5728 87° East 483 556 37,000  Level Minneapolis Center
Sat 11:30:13 AM 44.6711 -96.3825 87° East 486 559 37,000  Level Minneapolis Center
Sat 11:31:15 AM 44.6794 -96.1903 86° East 490 564 37,000  Level Minneapolis Center
Sat 11:32:16 AM 44.6861 -95.9975 87° East 491 565 37,000  Level Minneapolis Center
Sat 11:33:17 AM 44.6942 -95.8086 87° East 485 558 37,000  Level Minneapolis Center
Sat 11:34:19 AM 44.7028 -95.5822 87° East 482 555 37,000  Level Minneapolis Center
Sat 11:35:20 AM 44.7083 -95.3917 88° East 486 559 37,000  Level Minneapolis Center
Sat 11:36:22 AM 44.7150 -95.2000 87° East 490 564 37,000  Level Minneapolis Center
Sat 11:37:23 AM 44.7200 -95.0058 88° East 495 570 37,000  Level Minneapolis Center
Sat 11:38:24 AM 44.7256 -94.8150 88° East 492 566 37,000  Level Minneapolis Center
Sat 11:39:26 AM 44.7297 -94.6367 88° East 495 570 37,000  Level Minneapolis Center
Sat 11:40:27 AM 44.7342 -94.4042 88° East 497 572 37,000  Level Minneapolis Center
Sat 11:41:29 AM 44.7394 -94.2128 88° East 494 568 37,000  Level Minneapolis Center
Sat 11:42:30 AM 44.7433 -94.0181 88° East 499 574 37,000  Level Minneapolis Center
Sat 11:43:31 AM 44.7247 -93.8258 98° East 509 586 37,000  Level Minneapolis Center
Sat 11:44:45 AM 44.6589 -93.6508 118° Southeast 514 592 37,000  Level Minneapolis Center
Sat 11:45:46 AM 44.5781 -93.4433 119° Southeast 516 594 37,000  Level Minneapolis Center
Sat 11:46:48 AM 44.4972 -93.2383 119° Southeast 514 592 37,000  Level Minneapolis Center
Sat 11:47:49 AM 44.4303 -93.0669 119° Southeast 511 588 37,000  Level Minneapolis Center
Sat 11:48:51 AM 44.3631 -92.8961 119° Southeast 509 586 37,000  Level Minneapolis Center
Sat 11:49:52 AM 44.2944 -92.7244 119° Southeast 510 587 37,000  Level Minneapolis Center
Sat 11:50:53 AM 44.2272 -92.5547 119° Southeast 506 582 37,000  Level Minneapolis Center
Sat 11:51:55 AM 44.1581 -92.3844 119° Southeast 507 583 37,000  Level Minneapolis Center
Sat 11:52:56 AM 44.0894 -92.2142 119° Southeast 507 583 37,000  Level Minneapolis Center
Sat 11:53:58 AM 44.0058 -92.0097 120° Southeast 509 586 37,000  Level Minneapolis Center
Sat 11:54:59 AM 43.9361 -91.8394 120° Southeast 509 586 37,000  Level Minneapolis Center
Sat 11:56:01 AM 43.8661 -91.6708 120° Southeast 513 590 37,000  Level Minneapolis Center
Sat 11:57:02 AM 43.7947 -91.4989 120° Southeast 516 594 37,000  Level Minneapolis Center
Sat 11:58:03 AM 43.7239 -91.3272 120° Southeast 516 594 37,000  Level Minneapolis Center
Sat 11:59:05 AM 43.6536 -91.1631 121° Southeast 508 585 37,000  Level Minneapolis Center
Sat 12:00:06 PM 43.5825 -90.9961 120° Southeast 507 583 37,000  Level Minneapolis Center
Sat 12:01:08 PM 43.5125 -90.8292 120° Southeast 505 581 37,000  Level Minneapolis Center
Sat 12:02:09 PM 43.4283 -90.6311 120° Southeast 503 579 37,000  Level Minneapolis Center
Sat 12:02:58 PM 43.3711 -90.5011 121° Southeast 500 575 37,000  Level Chicago Center
Sat 12:03:59 PM 43.3011 -90.3378 120° Southeast 499 574 37,000  Level Chicago Center
Sat 12:05:01 PM 43.2306 -90.1772 121° Southeast 499 574 37,000  Level Chicago Center
Sat 12:06:03 PM 43.1592 -90.0156 121° Southeast 497 572 37,000  Level Chicago Center
Sat 12:07:04 PM 43.0772 -89.8297 121° Southeast 490 564 37,000  Level Chicago Center
Sat 12:08:06 PM 43.0058 -89.6689 121° Southeast 494 568 37,000  Level Chicago Center
Sat 12:09:08 PM 42.9347 -89.5092 121° Southeast 491 565 37,000  Level Chicago Center
Sat 12:10:09 PM 42.8647 -89.3514 121° Southeast 490 564 37,000  Level Chicago Center
Sat 12:11:12 PM 42.7936 -89.1947 122° Southeast 487 560 37,000  Level Chicago Center
Sat 12:12:13 PM 42.7233 -89.0386 121° Southeast 485 558 37,000  Level Chicago Center
Sat 12:13:14 PM 42.6406 -88.8561 122° Southeast 485 558 37,000  Level Chicago Center
Sat 12:14:16 PM 42.5692 -88.6992 122° Southeast 490 564 37,000  Level Chicago Center
Sat 12:15:18 PM 42.4975 -88.5439 122° Southeast 487 560 37,000  Level Chicago Center
Sat 12:16:20 PM 42.4253 -88.3908 123° Southeast 485 558 37,000  Level Chicago Center
Sat 12:17:21 PM 42.3589 -88.2317 119° Southeast 485 558 37,000  Level Chicago Center
Sat 12:18:23 PM 42.3389 -88.0439 98° East 511 588 37,000  Level Chicago Center
Sat 12:19:25 PM 42.3239 -87.8258 95° East 502 578 37,000  Level Chicago Center
Sat 12:20:26 PM 42.3106 -87.6364 95° East 498 573 37,000  Level Chicago Center
Sat 12:21:28 PM 42.2964 -87.4514 96° East 497 572 37,000  Level Chicago Center
Sat 12:22:30 PM 42.2825 -87.2631 96° East 503 579 37,000  Level Chicago Center
Sat 12:23:31 PM 42.2681 -87.0736 96° East 508 585 37,000  Level Chicago Center
Sat 12:24:33 PM 42.2544 -86.8847 95° East 508 585 37,000  Level Chicago Center
Sat 12:25:35 PM 42.2364 -86.6656 96° East 511 588 37,000  Level Chicago Center
Sat 12:26:36 PM 42.2228 -86.5000 96° East 516 594 37,000  Level Chicago Center
Sat 12:27:38 PM 42.2064 -86.3089 97° East 514 592 37,000  Level Chicago Center
Sat 12:28:40 PM 42.1875 -86.0789 96° East 513 590 37,000  Level Chicago Center
Sat 12:29:41 PM 42.1708 -85.9047 97° East 511 588 37,000  Level Chicago Center
Sat 12:30:43 PM 42.1547 -85.7169 97° East 509 586 37,000  Level Chicago Center
Sat 12:31:45 PM 42.1369 -85.5281 97° East 512 589 37,000  Level Chicago Center
Sat 12:32:46 PM 42.1175 -85.3022 97° East 509 586 37,000  Level Chicago Center
Sat 12:33:22 PM 42.1094 -85.1881 95° East 504 580 37,000  Level Cleveland Center
Sat 12:34:22 PM 42.0917 -85.0019 97° East 509 586 37,000  Level Cleveland Center
Sat 12:35:22 PM 42.0719 -84.8075 98° East 509 586 37,000  Level Cleveland Center
Sat 12:36:22 PM 42.0556 -84.6217 97° East 509 586 37,000  Level Cleveland Center
Sat 12:37:22 PM 42.0347 -84.4386 99° East 504 580 37,000  Level Cleveland Center
Sat 12:38:22 PM 42.0131 -84.2725 100° East 504 580 37,000  Level Cleveland Center
Sat 12:39:22 PM 41.9961 -84.0842 97° East 504 580 37,000  Level Cleveland Center
Sat 12:40:22 PM 41.9767 -83.8961 98° East 509 586 37,000  Level Cleveland Center
Sat 12:41:22 PM 41.9550 -83.7078 99° East 504 580 37,000  Level Cleveland Center
Sat 12:42:22 PM 41.9347 -83.5225 98° East 504 580 37,000  Level Cleveland Center
Sat 12:43:22 PM 41.9331 -83.3353 91° East 504 580 37,000  Level Cleveland Center
Sat 12:44:22 PM 41.9297 -83.1258 91° East 504 580 37,000  Level Cleveland Center
Sat 12:45:22 PM 41.9294 -82.9417 90° East 504 580 37,000  Level Cleveland Center
Sat 12:46:22 PM 41.9269 -82.7544 91° East 499 574 37,000  Level Cleveland Center
Sat 12:47:22 PM 41.9239 -82.5675 91° East 499 574 37,000  Level Cleveland Center
Sat 12:48:22 PM 41.9228 -82.3831 90° East 499 574 37,000  Level Cleveland Center
Sat 12:49:22 PM 41.9214 -82.1961 91° East 499 574 37,000  Level Cleveland Center
Sat 12:50:22 PM 41.9197 -82.0119 91° East 499 574 37,000  Level Cleveland Center
Sat 12:51:22 PM 41.9178 -81.8306 91° East 494 568 37,000  Level Cleveland Center
Sat 12:52:22 PM 41.9006 -81.6656 98° East 494 568 37,000  Level Cleveland Center
Sat 12:53:22 PM 41.8856 -81.4867 96° East 489 563 37,000  Level Cleveland Center
Sat 12:54:22 PM 41.8722 -81.3081 96° East 482 555 37,000  Level Cleveland Center
Sat 12:55:22 PM 41.8544 -81.1294 98° East 488 562 37,000  Level Cleveland Center
Sat 12:56:22 PM 41.8364 -80.9511 98° East 488 562 37,000  Level Cleveland Center
Sat 12:57:22 PM 41.8181 -80.7558 97° East 483 556 37,000  Level Cleveland Center
Sat 12:58:22 PM 41.7994 -80.5775 98° East 483 556 37,000 -250 Level Cleveland Center
Sat 12:59:22 PM 41.7828 -80.4022 97° East 483 556 36,500 -500 Descending Cleveland Center
Sat 01:00:22 PM 41.7636 -80.2269 98° East 483 556 36,000 -250 Descending Cleveland Center
Sat 01:01:22 PM 41.7461 -80.0517 98° East 483 556 36,000  Level Cleveland Center
Sat 01:02:22 PM 41.7286 -79.8764 98° East 483 556 36,000  Level Cleveland Center
Sat 01:03:22 PM 41.7106 -79.7014 98° East 478 550 36,000  Level Cleveland Center
Sat 01:04:22 PM 41.6925 -79.5292 98° East 478 550 36,000  Level Cleveland Center
Sat 01:05:22 PM 41.6742 -79.3572 98° East 473 544 36,000  Level Cleveland Center
Sat 01:06:22 PM 41.6556 -79.1881 98° East 468 539 36,000  Level Cleveland Center
Sat 01:07:22 PM 41.6344 -79.0133 99° East 468 539 36,000  Level Cleveland Center
Sat 01:08:22 PM 41.6153 -78.8417 98° East 468 539 36,000  Level Cleveland Center
Sat 01:09:22 PM 41.5981 -78.6672 97° East 468 539 36,000 -300 Level Cleveland Center
Sat 01:10:22 PM 41.5742 -78.4903 100° East 468 539 35,400 -750 Descending Cleveland Center
Sat 01:11:22 PM 41.5542 -78.3217 99° East 468 539 34,500 -913 Descending Cleveland Center
Sat 01:11:54 PM 41.5439 -78.2217 98° East 459 528 34,000 -903 Descending New York Center
Sat 01:12:55 PM 41.5258 -78.0783 100° East 446 513 33,100 -966 Descending New York Center
Sat 01:13:52 PM 41.5025 -77.9094 100° East 453 521 32,100 -1,017 Descending New York Center
Sat 01:14:53 PM 41.4792 -77.7436 101° East 453 521 31,100 -992 Descending New York Center
Sat 01:15:53 PM 41.4575 -77.5781 100° East 453 521 30,100 -1,041 Descending New York Center
Sat 01:16:54 PM 41.4314 -77.4119 102° East 453 521 29,000 -545 Descending New York Center
Sat 01:17:54 PM 41.4056 -77.2381 101° East 448 516 29,000  Level New York Center
Sat 01:18:56 PM 41.3808 -77.0781 102° East 448 516 29,000 -303 Level New York Center
Sat 01:19:53 PM 41.3583 -76.9156 100° East 448 516 28,400 -1,333 Descending New York Center
Sat 01:20:53 PM 41.3331 -76.7556 102° East 443 510 26,400 -1,686 Descending New York Center
Sat 01:21:54 PM 41.2922 -76.6111 111° Southeast 438 504 25,000 -807 Descending New York Center
Sat 01:22:52 PM 41.2536 -76.4642 109° East 426 490 24,800 -1,059 Descending New York Center
Sat 01:23:53 PM 41.2161 -76.3342 111° Southeast 420 483 22,900 -1,707 Descending New York Center
Sat 01:24:55 PM 41.1792 -76.1878 108° East 420 483 21,300 -1,561 Descending New York Center
Sat 01:25:56 PM 41.1397 -76.0469 110° East 415 478 19,700 -1,881 Descending New York Center
Sat 01:26:53 PM 41.1039 -75.9147 110° East 396 456 17,600 -2,136 Descending New York Center
Sat 01:27:54 PM 41.0664 -75.7661 108° East 391 450 15,500 -1,934 Descending New York Center
Sat 01:28:54 PM 41.0300 -75.6394 111° Southeast 381 438 13,700 -1,240 Descending New York Center
Sat 01:29:55 PM 40.9956 -75.5161 110° East 366 421 13,000 -645 Descending New York Center
Sat 01:30:55 PM 40.9644 -75.4067 111° Southeast 361 415 12,400 -1,220 Descending New York Center
Sat 01:31:53 PM 40.9278 -75.2753 110° East 350 403 10,600 -1,169 Descending New York Center
Sat 01:32:53 PM 40.8964 -75.1686 111° Southeast 332 382 10,100 -934 Descending New York Center
Sat 01:33:55 PM 40.8667 -75.0708 112° Southeast 299 344 8,700 -1,400 Descending New York Center
Sat 01:34:53 PM 40.8281 -74.9889 122° Southeast 283 326 7,300 -807 Descending New York Center
Sat 01:35:54 PM 40.7892 -74.9042 121° Southeast 278 320 7,100 -149 Descending New York Center
Sat 01:36:54 PM 40.8056 -74.7928 79° East 263 303 7,000 -397 Descending New York Center
Sat 01:37:55 PM 40.8314 -74.7094 68° East 263 303 6,300 -454 Descending New York Center
Sat 01:38:53 PM 40.8639 -74.6097 67° East 263 303 6,100 -306 Descending New York Center
Sat 01:39:33 PM 40.8833 -74.5500 67° East 269 310 5,800 -492 Descending New York TRACON
Sat 01:39:54 PM 40.9017 -74.5350 32° Northeast 263 303 5,600 -512 Descending New York Center
Sat 01:40:55 PM 40.9578 -74.4747 39° Northeast 250 288 5,100 -252 Descending New York Center
Sat 01:41:53 PM 41.0117 -74.4147 40° Northeast 250 288 5,100 -50 Level New York Center
Sat 01:42:54 PM 41.0511 -74.3533 50° Northeast 227 261 5,000  Descending New York Center
Sat 01:43:28 PM 41.0333 -74.3167 123° Southeast 225 259 5,100 64 Climbing New York TRACON
Sat 01:44:28 PM 40.9833 -74.3167 180° South 197 227 5,100 -504 Level New York TRACON
Sat 01:45:27 PM 40.9500 -74.2333 118° Southeast 221 254 4,100 -500 Descending New York TRACON
Sat 01:46:28 PM 40.9333 -74.1667 108° East 202 232 4,100  Level New York TRACON
Sat 01:47:27 PM 40.9333 -74.1000 90° East 204 235 4,100 -526 Level New York TRACON
Sat 01:48:22 PM 40.9167 -74.0500 114° Southeast 196 226 3,100 -522 Descending New York TRACON
Sat 01:49:22 PM 40.8667 -74.0500 180° South 165 190 3,100  Level New York TRACON

Login

Don't have an account? Register now (free) for customized features, flight alerts, and more!